Flight Track Log - Related Links

Times and Time Zones

All times are in EDT time to prevent confusion due to time zone crossing. See the EGF2815 flight status page for this flight to view local times or setup timezone preferences in your user account.

Time Position Orientation Groundspeed Altitude Reporting Facility
EDT Latitude Longitude Course Direction KTS MPH feet Rate Location/Type
Sun 04:49:20 PM 40.6167 -73.7667 281° West 159 183 1,500  Level New York TRACON
Sun 04:50:20 PM 40.6000 -73.7167 114° Southeast 213 245 3,500 1,800 Climbing New York TRACON
Sun 04:51:00 PM 40.8871 -73.7667 North  Level FlightAware Approximate
Sun 04:51:20 PM 40.6500 -73.6500 45° Northeast 254 292 5,100  Level New York TRACON
Sun 04:52:00 PM 40.9717 -73.7667 North  Level FlightAware Approximate
Sun 04:52:26 PM 40.7167 -73.5833 37° Northeast 276 318 7,600  Level New York TRACON
Sun 04:53:00 PM 41.0564 -73.7667 North  Level FlightAware Approximate
Sun 04:53:20 PM 40.7833 -73.5333 30° Northeast 293 337 9,500  Level New York TRACON
Sun 04:54:00 PM 41.1076 -73.8201 281° West  Level FlightAware Approximate
Sun 04:55:07 PM 40.9150 -73.5281 North 301 346 12,700  Level New York Center
Sun 04:56:08 PM 40.9675 -73.5989 314° West 282 325 14,400 1,750 Climbing New York Center
Sun 04:57:07 PM 41.0342 -73.6786 318° Northwest 295 339 16,200 1,714 Climbing New York Center
Sun 04:58:07 PM 41.0967 -73.7586 316° Northwest 300 345 17,800 1,500 Climbing New York Center
Sun 04:59:07 PM 41.1319 -73.8456 298° West 302 348 19,200 1,475 Climbing New York Center
Sun 05:00:09 PM 41.1186 -73.9550 261° West 288 331 20,800 1,462 Climbing New York Center
Sun 05:01:06 PM 41.1031 -74.0672 260° West 288 331 22,100 1,333 Climbing New York Center
Sun 05:02:06 PM 41.0853 -74.1792 258° West 300 345 23,400 1,388 Climbing New York Center
Sun 05:03:07 PM 41.0675 -74.2883 258° West 306 352 24,900 1,240 Climbing New York Center
Sun 05:04:07 PM 41.0494 -74.4028 258° West 317 365 25,900 545 Climbing New York Center
Sun 05:05:08 PM 41.0356 -74.5178 261° West 317 365 26,000 50 Climbing New York Center
Sun 05:06:06 PM 41.0172 -74.6294 258° West 317 365 26,000  Level New York Center
Sun 05:07:06 PM 41.0008 -74.7467 260° West 317 365 26,000  Level New York Center
Sun 05:08:07 PM 40.9867 -74.8614 261° West 317 365 26,000  Level New York Center
Sun 05:09:07 PM 40.9700 -74.9758 259° West 317 365 26,000  Level New York Center
Sun 05:10:08 PM 40.9389 -75.0864 250° West 317 365 26,000  Level New York Center
Sun 05:11:08 PM 40.9119 -75.1944 252° West 317 365 26,000  Level New York Center
Sun 05:12:07 PM 40.8850 -75.3053 252° West 317 365 26,000  Level New York Center
Sun 05:13:08 PM 40.8642 -75.4136 256° West 317 365 26,000  Level New York Center
Sun 05:14:08 PM 40.8389 -75.5272 254° West 317 365 26,000  Level New York Center
Sun 05:15:08 PM 40.8114 -75.6350 251° West 317 365 26,000  Level New York Center
Sun 05:16:06 PM 40.7839 -75.7481 252° West 317 365 26,000  Level New York Center
Sun 05:17:08 PM 40.7561 -75.8583 252° West 317 365 26,000  Level New York Center
Sun 05:18:07 PM 40.7306 -75.9714 253° West 317 365 26,000  Level New York Center
Sun 05:19:08 PM 40.7025 -76.0817 251° West 317 365 26,000  Level New York Center
Sun 05:20:08 PM 40.6744 -76.1972 252° West 322 371 26,000  Level New York Center
Sun 05:21:06 PM 40.6733 -76.3119 269° West 317 365 26,000  Level New York Center
Sun 05:22:07 PM 40.6908 -76.4283 281° West 310 357 26,000  Level New York Center
Sun 05:23:07 PM 40.7081 -76.5419 281° West 315 362 26,000  Level New York Center
Sun 05:24:06 PM 40.7275 -76.6586 282° West 315 362 26,000  Level New York Center
Sun 05:25:07 PM 40.7444 -76.7753 281° West 315 362 26,000  Level New York Center
Sun 05:26:07 PM 40.7594 -76.8917 280° West 315 362 26,000  Level New York Center
Sun 05:27:07 PM 40.7783 -77.0058 282° West 315 362 26,000  Level New York Center
Sun 05:28:08 PM 40.7931 -77.1222 280° West 315 362 26,000  Level New York Center
Sun 05:29:08 PM 40.8119 -77.2336 283° West 315 362 26,000  Level New York Center
Sun 05:30:06 PM 40.8278 -77.3614 279° West 320 368 26,000  Level New York Center
Sun 05:31:07 PM 40.8433 -77.4589 282° West 315 362 26,000  Level New York Center
Sun 05:33:08 PM 40.8772 -77.7050 280° West 316 364 26,000  Level Cleveland Center
Sun 05:34:08 PM 40.8925 -77.8197 280° West 316 364 26,000  Level Cleveland Center
Sun 05:35:08 PM 40.9078 -77.9344 280° West 316 364 26,000  Level Cleveland Center
Sun 05:36:08 PM 40.9231 -78.0467 280° West 316 364 26,000  Level Cleveland Center
Sun 05:37:08 PM 40.9422 -78.1614 283° West 316 364 26,000  Level Cleveland Center
Sun 05:38:08 PM 40.9653 -78.2814 284° West 322 371 26,000  Level Cleveland Center
Sun 05:39:08 PM 40.9842 -78.3936 283° West 322 371 26,000  Level Cleveland Center
Sun 05:40:08 PM 41.0031 -78.5086 282° West 322 371 26,000  Level Cleveland Center
Sun 05:41:08 PM 41.0219 -78.6264 282° West 322 371 26,000  Level Cleveland Center
Sun 05:42:08 PM 41.0406 -78.7386 282° West 322 371 26,000  Level Cleveland Center
Sun 05:43:08 PM 41.0589 -78.8539 282° West 322 371 26,000  Level Cleveland Center
Sun 05:44:08 PM 41.0772 -78.9689 282° West 322 371 26,000  Level Cleveland Center
Sun 05:45:08 PM 41.0956 -79.0869 282° West 322 371 26,000  Level Cleveland Center
Sun 05:46:08 PM 41.1117 -79.1997 281° West 322 371 26,000  Level Cleveland Center
Sun 05:47:08 PM 41.1317 -79.3178 283° West 322 371 26,000  Level Cleveland Center
Sun 05:48:08 PM 41.1475 -79.4333 280° West 322 371 26,000  Level Cleveland Center
Sun 05:49:08 PM 41.1653 -79.5517 281° West 322 371 26,000 -150 Level Cleveland Center
Sun 05:50:08 PM 41.1808 -79.6644 280° West 322 371 25,700 -700 Descending Cleveland Center
Sun 05:51:08 PM 41.2006 -79.7800 283° West 322 371 24,600 -850 Descending Cleveland Center
Sun 05:52:08 PM 41.2178 -79.8958 281° West 322 371 24,000 -300 Descending Cleveland Center
Sun 05:53:08 PM 41.2372 -80.0117 283° West 322 371 24,000  Level Cleveland Center
Sun 05:54:08 PM 41.2525 -80.1275 280° West 322 371 24,000  Level Cleveland Center
Sun 05:55:08 PM 41.2694 -80.2406 281° West 317 365 24,000  Level Cleveland Center
Sun 05:56:08 PM 41.2864 -80.3511 282° West 317 365 24,000 -50 Level Cleveland Center
Sun 05:57:08 PM 41.2992 -80.4558 279° West 317 365 23,900 -750 Descending Cleveland Center
Sun 05:58:08 PM 41.3222 -80.5639 286° West 310 357 22,500 -1,850 Descending Cleveland Center
Sun 05:59:08 PM 41.3575 -80.6661 295° West 305 351 20,200 -2,250 Descending Cleveland Center
Sun 06:00:08 PM 41.3908 -80.7686 293° West 305 351 18,000 -2,304 Descending Cleveland Center
Sun 06:01:00 PM 41.4178 -80.8628 291° West 300 345 15,900 -2,268 Descending Cleveland Center
Sun 06:01:30 PM 41.4383 -80.9183 296° West 299 344 14,900 -1,941 Descending Cleveland Center
Sun 06:02:08 PM 41.4547 -80.9711 293° West 300 345 13,700 -2,265 Descending Cleveland Center
Sun 06:03:08 PM 41.4878 -81.0767 293° West 290 334 11,200 -1,850 Descending Cleveland Center
Sun 06:04:08 PM 41.5164 -81.1739 291° West 285 328 10,000 -600 Descending Cleveland Center
Sun 06:05:08 PM 41.5033 -81.2761 260° West 275 316 10,000  Level Cleveland Center
Sun 06:06:08 PM 41.4881 -81.3786 259° West 282 325 10,000  Level Cleveland Center
Sun 06:07:08 PM 41.4750 -81.4783 260° West 282 325 10,000 -50 Level Cleveland Center
Sun 06:08:08 PM 41.4575 -81.5778 257° West 277 319 9,900 -950 Descending Cleveland Center
Sun 06:09:08 PM 41.4192 -81.6658 240° Southwest 277 319 8,100 -1,450 Descending Cleveland Center
Sun 06:10:08 PM 41.3828 -81.7511 240° Southwest 272 313 7,000 -1,333 Descending Cleveland Center
Sun 06:11:32 PM 41.3192 -81.8606 232° Southwest 279 321 4,900 -1,241 Descending Cleveland Center
Sun 06:12:33 PM 41.2703 -81.9339 228° Southwest 256 295 4,000 -787 Descending Cleveland Center
Sun 06:13:34 PM 41.2797 -82.0117 279° West 236 272 3,300 -689 Descending Cleveland Center

Login

Don't have an account? Register now (free) for customized features, flight alerts, and more!